sensor_id;sensor_type;location;lat;lon;timestamp;P1;durP1;ratioP1;P2;durP2;ratioP2
7879;SDS011;3985;49.366;2.738;2023-07-20T00:02:12;4.00;;;2.67;;
7879;SDS011;3985;49.366;2.738;2023-07-20T00:04:41;2.33;;;2.33;;
7879;SDS011;3985;49.366;2.738;2023-07-20T00:07:09;3.00;;;2.00;;
7879;SDS011;3985;49.366;2.738;2023-07-20T00:09:39;2.00;;;2.00;;
7879;SDS011;3985;49.366;2.738;2023-07-20T00:12:06;3.00;;;2.67;;
7879;SDS011;3985;49.366;2.738;2023-07-20T00:14:34;2.00;;;2.00;;
7879;SDS011;3985;49.366;2.738;2023-07-20T00:17:02;2.00;;;2.00;;
7879;SDS011;3985;49.366;2.738;2023-07-20T00:19:31;2.33;;;2.33;;
7879;SDS011;3985;49.366;2.738;2023-07-20T00:22:00;2.00;;;2.00;;
7879;SDS011;3985;49.366;2.738;2023-07-20T00:24:29;1.00;;;1.00;;
7879;SDS011;3985;49.366;2.738;2023-07-20T00:26:57;4.00;;;2.67;;
7879;SDS011;3985;49.366;2.738;2023-07-20T00:29:26;2.00;;;2.00;;
7879;SDS011;3985;49.366;2.738;2023-07-20T00:31:53;2.00;;;2.00;;
7879;SDS011;3985;49.366;2.738;2023-07-20T00:34:21;2.67;;;2.67;;
7879;SDS011;3985;49.366;2.738;2023-07-20T00:36:50;2.67;;;2.00;;
7879;SDS011;3985;49.366;2.738;2023-07-20T00:39:17;2.00;;;2.00;;
7879;SDS011;3985;49.366;2.738;2023-07-20T00:41:45;3.00;;;1.00;;
7879;SDS011;3985;49.366;2.738;2023-07-20T00:44:12;2.67;;;2.67;;
7879;SDS011;3985;49.366;2.738;2023-07-20T00:46:40;2.33;;;2.33;;
7879;SDS011;3985;49.366;2.738;2023-07-20T00:49:09;2.00;;;2.00;;
7879;SDS011;3985;49.366;2.738;2023-07-20T00:51:39;2.00;;;2.00;;
7879;SDS011;3985;49.366;2.738;2023-07-20T00:54:08;2.00;;;2.00;;
7879;SDS011;3985;49.366;2.738;2023-07-20T00:56:36;2.00;;;2.00;;
7879;SDS011;3985;49.366;2.738;2023-07-20T00:59:03;3.00;;;1.33;;
7879;SDS011;3985;49.366;2.738;2023-07-20T01:01:31;2.67;;;2.67;;
7879;SDS011;3985;49.366;2.738;2023-07-20T01:03:58;4.00;;;2.33;;
7879;SDS011;3985;49.366;2.738;2023-07-20T01:06:29;2.33;;;2.33;;
7879;SDS011;3985;49.366;2.738;2023-07-20T01:09:02;3.67;;;2.00;;
7879;SDS011;3985;49.366;2.738;2023-07-20T01:11:37;2.00;;;2.00;;
7879;SDS011;3985;49.366;2.738;2023-07-20T01:14:12;3.00;;;3.00;;
7879;SDS011;3985;49.366;2.738;2023-07-20T01:16:41;2.33;;;1.67;;
7879;SDS011;3985;49.366;2.738;2023-07-20T01:19:12;2.75;;;2.75;;
7879;SDS011;3985;49.366;2.738;2023-07-20T01:21:42;3.00;;;1.00;;
7879;SDS011;3985;49.366;2.738;2023-07-20T01:24:32;2.00;;;2.00;;
7879;SDS011;3985;49.366;2.738;2023-07-20T01:27:24;1.00;;;1.00;;
7879;SDS011;3985;49.366;2.738;2023-07-20T01:30:29;1.00;;;1.00;;
7879;SDS011;3985;49.366;2.738;2023-07-20T01:33:08;3.00;;;3.00;;
7879;SDS011;3985;49.366;2.738;2023-07-20T01:35:37;3.00;;;2.00;;
7879;SDS011;3985;49.366;2.738;2023-07-20T01:38:05;3.00;;;3.00;;
7879;SDS011;3985;49.366;2.738;2023-07-20T01:40:33;3.50;;;3.50;;
7879;SDS011;3985;49.366;2.738;2023-07-20T01:43:01;2.75;;;2.75;;
7879;SDS011;3985;49.366;2.738;2023-07-20T01:45:29;3.00;;;3.00;;
7879;SDS011;3985;49.366;2.738;2023-07-20T01:47:56;3.25;;;3.00;;
7879;SDS011;3985;49.366;2.738;2023-07-20T01:50:26;4.50;;;3.50;;
7879;SDS011;3985;49.366;2.738;2023-07-20T01:52:53;2.25;;;2.25;;
7879;SDS011;3985;49.366;2.738;2023-07-20T01:55:21;2.25;;;2.25;;
7879;SDS011;3985;49.366;2.738;2023-07-20T01:57:48;2.50;;;2.50;;
7879;SDS011;3985;49.366;2.738;2023-07-20T02:00:16;2.00;;;2.00;;
7879;SDS011;3985;49.366;2.738;2023-07-20T02:02:46;5.33;;;2.00;;
7879;SDS011;3985;49.366;2.738;2023-07-20T02:05:14;2.00;;;2.00;;
7879;SDS011;3985;49.366;2.738;2023-07-20T02:07:42;0.67;;;0.67;;
7879;SDS011;3985;49.366;2.738;2023-07-20T02:10:11;1.33;;;1.33;;
7879;SDS011;3985;49.366;2.738;2023-07-20T02:12:39;2.00;;;2.00;;
7879;SDS011;3985;49.366;2.738;2023-07-20T02:15:07;2.75;;;2.75;;
7879;SDS011;3985;49.366;2.738;2023-07-20T02:17:35;2.75;;;2.00;;
7879;SDS011;3985;49.366;2.738;2023-07-20T02:20:02;4.00;;;3.00;;
7879;SDS011;3985;49.366;2.738;2023-07-20T02:22:33;2.00;;;2.00;;
7879;SDS011;3985;49.366;2.738;2023-07-20T02:25:02;1.25;;;1.25;;
7879;SDS011;3985;49.366;2.738;2023-07-20T02:27:30;3.00;;;2.00;;
7879;SDS011;3985;49.366;2.738;2023-07-20T02:29:57;2.75;;;2.00;;
7879;SDS011;3985;49.366;2.738;2023-07-20T02:32:25;2.75;;;2.50;;
7879;SDS011;3985;49.366;2.738;2023-07-20T02:34:52;2.25;;;2.25;;
7879;SDS011;3985;49.366;2.738;2023-07-20T02:37:20;2.75;;;2.75;;
7879;SDS011;3985;49.366;2.738;2023-07-20T02:39:47;1.00;;;1.00;;
7879;SDS011;3985;49.366;2.738;2023-07-20T02:42:27;2.00;;;2.00;;
7879;SDS011;3985;49.366;2.738;2023-07-20T02:44:55;2.00;;;2.00;;
7879;SDS011;3985;49.366;2.738;2023-07-20T02:47:22;3.00;;;3.00;;
7879;SDS011;3985;49.366;2.738;2023-07-20T02:49:50;4.00;;;3.00;;
7879;SDS011;3985;49.366;2.738;2023-07-20T02:52:17;2.00;;;2.00;;
7879;SDS011;3985;49.366;2.738;2023-07-20T02:54:44;3.00;;;3.00;;
7879;SDS011;3985;49.366;2.738;2023-07-20T02:57:12;2.00;;;2.00;;
7879;SDS011;3985;49.366;2.738;2023-07-20T02:59:41;2.00;;;2.00;;
7879;SDS011;3985;49.366;2.738;2023-07-20T03:02:09;2.50;;;2.50;;
7879;SDS011;3985;49.366;2.738;2023-07-20T03:04:36;4.50;;;2.75;;
7879;SDS011;3985;49.366;2.738;2023-07-20T03:07:04;2.00;;;2.00;;
7879;SDS011;3985;49.366;2.738;2023-07-20T03:09:32;3.50;;;3.00;;
7879;SDS011;3985;49.366;2.738;2023-07-20T03:11:59;1.25;;;1.25;;
7879;SDS011;3985;49.366;2.738;2023-07-20T03:14:30;3.00;;;1.75;;
7879;SDS011;3985;49.366;2.738;2023-07-20T03:16:58;1.00;;;1.00;;
7879;SDS011;3985;49.366;2.738;2023-07-20T03:19:26;5.00;;;3.00;;
7879;SDS011;3985;49.366;2.738;2023-07-20T03:21:53;4.25;;;3.00;;
7879;SDS011;3985;49.366;2.738;2023-07-20T03:24:21;2.00;;;2.00;;
7879;SDS011;3985;49.366;2.738;2023-07-20T03:26:49;4.00;;;2.25;;
7879;SDS011;3985;49.366;2.738;2023-07-20T03:29:17;3.00;;;3.00;;
7879;SDS011;3985;49.366;2.738;2023-07-20T03:31:44;2.00;;;2.00;;
7879;SDS011;3985;49.366;2.738;2023-07-20T03:34:15;4.50;;;3.00;;
7879;SDS011;3985;49.366;2.738;2023-07-20T03:36:43;4.25;;;2.50;;
7879;SDS011;3985;49.366;2.738;2023-07-20T03:39:14;4.25;;;4.25;;
7879;SDS011;3985;49.366;2.738;2023-07-20T03:41:41;2.25;;;2.25;;
7879;SDS011;3985;49.366;2.738;2023-07-20T03:44:09;3.50;;;3.00;;
7879;SDS011;3985;49.366;2.738;2023-07-20T03:46:36;3.50;;;3.50;;
7879;SDS011;3985;49.366;2.738;2023-07-20T03:49:03;2.50;;;2.50;;
7879;SDS011;3985;49.366;2.738;2023-07-20T03:51:33;2.75;;;2.75;;
7879;SDS011;3985;49.366;2.738;2023-07-20T03:54:00;2.50;;;2.50;;
7879;SDS011;3985;49.366;2.738;2023-07-20T03:56:27;6.00;;;4.25;;
7879;SDS011;3985;49.366;2.738;2023-07-20T03:58:59;4.00;;;4.00;;
7879;SDS011;3985;49.366;2.738;2023-07-20T04:01:26;3.00;;;3.00;;
7879;SDS011;3985;49.366;2.738;2023-07-20T04:03:53;4.00;;;2.00;;
7879;SDS011;3985;49.366;2.738;2023-07-20T04:06:21;2.25;;;2.25;;
7879;SDS011;3985;49.366;2.738;2023-07-20T04:08:49;3.00;;;3.00;;
7879;SDS011;3985;49.366;2.738;2023-07-20T04:11:16;4.00;;;4.00;;
7879;SDS011;3985;49.366;2.738;2023-07-20T04:13:46;3.25;;;2.00;;
7879;SDS011;3985;49.366;2.738;2023-07-20T04:16:13;3.50;;;2.00;;
7879;SDS011;3985;49.366;2.738;2023-07-20T04:18:40;2.50;;;2.50;;
7879;SDS011;3985;49.366;2.738;2023-07-20T04:21:07;3.75;;;3.75;;
7879;SDS011;3985;49.366;2.738;2023-07-20T04:23:37;3.00;;;3.00;;
7879;SDS011;3985;49.366;2.738;2023-07-20T04:26:05;2.25;;;2.25;;
7879;SDS011;3985;49.366;2.738;2023-07-20T04:28:33;3.00;;;3.00;;
7879;SDS011;3985;49.366;2.738;2023-07-20T04:31:09;2.75;;;2.75;;
7879;SDS011;3985;49.366;2.738;2023-07-20T04:33:39;3.50;;;3.50;;
7879;SDS011;3985;49.366;2.738;2023-07-20T04:36:07;4.75;;;3.50;;
7879;SDS011;3985;49.366;2.738;2023-07-20T04:38:34;3.50;;;3.50;;
7879;SDS011;3985;49.366;2.738;2023-07-20T04:41:01;5.00;;;3.75;;
7879;SDS011;3985;49.366;2.738;2023-07-20T04:43:30;3.00;;;3.00;;
7879;SDS011;3985;49.366;2.738;2023-07-20T04:45:57;3.00;;;3.00;;
7879;SDS011;3985;49.366;2.738;2023-07-20T04:48:24;4.50;;;4.50;;
7879;SDS011;3985;49.366;2.738;2023-07-20T04:50:54;4.50;;;4.50;;
7879;SDS011;3985;49.366;2.738;2023-07-20T04:53:22;4.75;;;4.00;;
7879;SDS011;3985;49.366;2.738;2023-07-20T04:55:52;4.00;;;3.00;;
7879;SDS011;3985;49.366;2.738;2023-07-20T04:58:19;5.50;;;5.50;;
7879;SDS011;3985;49.366;2.738;2023-07-20T05:00:49;5.00;;;5.00;;
7879;SDS011;3985;49.366;2.738;2023-07-20T05:03:17;4.25;;;4.25;;
7879;SDS011;3985;49.366;2.738;2023-07-20T05:05:46;4.33;;;4.33;;
7879;SDS011;3985;49.366;2.738;2023-07-20T05:08:15;4.67;;;4.67;;
7879;SDS011;3985;49.366;2.738;2023-07-20T05:10:43;8.00;;;6.67;;
7879;SDS011;3985;49.366;2.738;2023-07-20T05:13:10;7.67;;;7.00;;
7879;SDS011;3985;49.366;2.738;2023-07-20T05:15:37;6.00;;;6.00;;
7879;SDS011;3985;49.366;2.738;2023-07-20T05:18:06;7.67;;;7.67;;
7879;SDS011;3985;49.366;2.738;2023-07-20T05:20:33;8.67;;;7.33;;
7879;SDS011;3985;49.366;2.738;2023-07-20T05:23:02;6.33;;;6.33;;
7879;SDS011;3985;49.366;2.738;2023-07-20T05:25:29;9.00;;;7.33;;
7879;SDS011;3985;49.366;2.738;2023-07-20T05:27:56;7.75;;;7.25;;
7879;SDS011;3985;49.366;2.738;2023-07-20T05:30:24;8.00;;;6.50;;
7879;SDS011;3985;49.366;2.738;2023-07-20T05:32:51;7.00;;;7.00;;
7879;SDS011;3985;49.366;2.738;2023-07-20T05:35:21;8.75;;;8.75;;
7879;SDS011;3985;49.366;2.738;2023-07-20T05:37:48;6.00;;;6.00;;
7879;SDS011;3985;49.366;2.738;2023-07-20T05:40:15;7.75;;;7.75;;
7879;SDS011;3985;49.366;2.738;2023-07-20T05:42:44;11.50;;;9.50;;
7879;SDS011;3985;49.366;2.738;2023-07-20T05:45:13;10.00;;;9.75;;
7879;SDS011;3985;49.366;2.738;2023-07-20T05:47:42;9.00;;;7.75;;
7879;SDS011;3985;49.366;2.738;2023-07-20T05:50:10;9.75;;;9.75;;
7879;SDS011;3985;49.366;2.738;2023-07-20T05:52:39;8.00;;;8.00;;
7879;SDS011;3985;49.366;2.738;2023-07-20T05:55:06;7.00;;;7.00;;
7879;SDS011;3985;49.366;2.738;2023-07-20T05:57:34;13.25;;;10.25;;
7879;SDS011;3985;49.366;2.738;2023-07-20T06:00:05;11.25;;;9.75;;
7879;SDS011;3985;49.366;2.738;2023-07-20T06:02:33;11.50;;;8.25;;
7879;SDS011;3985;49.366;2.738;2023-07-20T06:05:01;10.75;;;9.00;;
7879;SDS011;3985;49.366;2.738;2023-07-20T06:07:28;9.75;;;9.75;;
7879;SDS011;3985;49.366;2.738;2023-07-20T06:09:57;9.75;;;8.50;;
7879;SDS011;3985;49.366;2.738;2023-07-20T06:12:24;13.25;;;9.50;;
7879;SDS011;3985;49.366;2.738;2023-07-20T06:14:52;9.50;;;8.75;;
7879;SDS011;3985;49.366;2.738;2023-07-20T06:17:19;9.50;;;9.50;;
7879;SDS011;3985;49.366;2.738;2023-07-20T06:19:47;10.00;;;10.00;;
7879;SDS011;3985;49.366;2.738;2023-07-20T06:22:14;14.50;;;12.25;;
7879;SDS011;3985;49.366;2.738;2023-07-20T06:24:41;11.25;;;9.25;;
7879;SDS011;3985;49.366;2.738;2023-07-20T06:27:11;10.25;;;10.25;;
7879;SDS011;3985;49.366;2.738;2023-07-20T06:29:40;14.25;;;12.75;;
7879;SDS011;3985;49.366;2.738;2023-07-20T06:32:07;10.00;;;9.25;;
7879;SDS011;3985;49.366;2.738;2023-07-20T06:34:35;12.00;;;12.00;;
7879;SDS011;3985;49.366;2.738;2023-07-20T06:37:03;11.75;;;11.00;;
7879;SDS011;3985;49.366;2.738;2023-07-20T06:39:30;10.75;;;10.75;;
7879;SDS011;3985;49.366;2.738;2023-07-20T06:41:58;10.25;;;10.25;;
7879;SDS011;3985;49.366;2.738;2023-07-20T06:44:26;12.00;;;10.25;;
7879;SDS011;3985;49.366;2.738;2023-07-20T06:46:53;15.00;;;13.00;;
7879;SDS011;3985;49.366;2.738;2023-07-20T06:49:24;11.75;;;11.75;;
7879;SDS011;3985;49.366;2.738;2023-07-20T06:51:52;13.50;;;12.50;;
7879;SDS011;3985;49.366;2.738;2023-07-20T06:54:19;11.50;;;11.50;;
7879;SDS011;3985;49.366;2.738;2023-07-20T06:56:46;14.25;;;14.25;;
7879;SDS011;3985;49.366;2.738;2023-07-20T06:59:16;10.00;;;10.00;;
7879;SDS011;3985;49.366;2.738;2023-07-20T07:01:45;13.50;;;13.50;;
7879;SDS011;3985;49.366;2.738;2023-07-20T07:04:12;14.75;;;14.75;;
7879;SDS011;3985;49.366;2.738;2023-07-20T07:06:39;11.75;;;9.50;;
7879;SDS011;3985;49.366;2.738;2023-07-20T07:09:07;16.50;;;13.50;;
7879;SDS011;3985;49.366;2.738;2023-07-20T07:11:34;13.50;;;13.50;;
7879;SDS011;3985;49.366;2.738;2023-07-20T07:14:01;12.25;;;12.25;;
7879;SDS011;3985;49.366;2.738;2023-07-20T07:16:29;8.00;;;8.00;;
7879;SDS011;3985;49.366;2.738;2023-07-20T07:18:57;15.75;;;12.75;;
7879;SDS011;3985;49.366;2.738;2023-07-20T07:21:24;15.00;;;13.75;;
7879;SDS011;3985;49.366;2.738;2023-07-20T07:23:52;9.00;;;7.00;;
7879;SDS011;3985;49.366;2.738;2023-07-20T07:26:22;12.75;;;12.75;;
7879;SDS011;3985;49.366;2.738;2023-07-20T07:28:49;13.00;;;13.00;;
7879;SDS011;3985;49.366;2.738;2023-07-20T07:31:17;13.75;;;12.50;;
7879;SDS011;3985;49.366;2.738;2023-07-20T07:33:44;12.25;;;12.25;;
7879;SDS011;3985;49.366;2.738;2023-07-20T07:36:14;11.00;;;9.25;;
7879;SDS011;3985;49.366;2.738;2023-07-20T07:38:41;11.25;;;10.75;;
7879;SDS011;3985;49.366;2.738;2023-07-20T07:41:09;14.75;;;12.00;;
7879;SDS011;3985;49.366;2.738;2023-07-20T07:43:36;9.50;;;9.25;;
7879;SDS011;3985;49.366;2.738;2023-07-20T07:46:03;11.75;;;11.75;;
7879;SDS011;3985;49.366;2.738;2023-07-20T07:48:30;9.00;;;9.00;;
7879;SDS011;3985;49.366;2.738;2023-07-20T07:50:57;12.25;;;12.25;;
7879;SDS011;3985;49.366;2.738;2023-07-20T07:53:26;14.00;;;12.25;;
7879;SDS011;3985;49.366;2.738;2023-07-20T07:55:53;12.25;;;9.75;;
7879;SDS011;3985;49.366;2.738;2023-07-20T07:58:21;10.25;;;9.50;;
7879;SDS011;3985;49.366;2.738;2023-07-20T08:00:48;10.00;;;9.75;;
7879;SDS011;3985;49.366;2.738;2023-07-20T08:03:15;11.25;;;11.25;;
7879;SDS011;3985;49.366;2.738;2023-07-20T08:05:46;12.00;;;11.75;;
7879;SDS011;3985;49.366;2.738;2023-07-20T08:08:14;12.25;;;12.00;;
7879;SDS011;3985;49.366;2.738;2023-07-20T08:10:44;11.00;;;11.00;;
7879;SDS011;3985;49.366;2.738;2023-07-20T08:13:12;10.00;;;10.00;;
7879;SDS011;3985;49.366;2.738;2023-07-20T08:15:45;11.00;;;10.50;;
7879;SDS011;3985;49.366;2.738;2023-07-20T08:18:16;13.00;;;12.50;;
7879;SDS011;3985;49.366;2.738;2023-07-20T08:20:44;10.75;;;8.00;;
7879;SDS011;3985;49.366;2.738;2023-07-20T08:23:12;10.75;;;9.75;;
7879;SDS011;3985;49.366;2.738;2023-07-20T08:25:39;9.00;;;9.00;;
7879;SDS011;3985;49.366;2.738;2023-07-20T08:28:10;11.00;;;11.00;;
7879;SDS011;3985;49.366;2.738;2023-07-20T08:30:41;12.50;;;12.50;;
7879;SDS011;3985;49.366;2.738;2023-07-20T08:33:09;12.00;;;11.50;;
7879;SDS011;3985;49.366;2.738;2023-07-20T08:35:36;9.00;;;9.00;;
7879;SDS011;3985;49.366;2.738;2023-07-20T08:38:03;9.25;;;9.25;;
7879;SDS011;3985;49.366;2.738;2023-07-20T08:40:31;7.00;;;7.00;;
7879;SDS011;3985;49.366;2.738;2023-07-20T08:42:58;9.00;;;9.00;;
7879;SDS011;3985;49.366;2.738;2023-07-20T08:45:28;11.50;;;10.25;;
7879;SDS011;3985;49.366;2.738;2023-07-20T08:47:57;11.50;;;10.50;;
7879;SDS011;3985;49.366;2.738;2023-07-20T08:50:25;10.50;;;9.25;;
7879;SDS011;3985;49.366;2.738;2023-07-20T08:52:53;13.00;;;10.50;;
7879;SDS011;3985;49.366;2.738;2023-07-20T08:55:24;10.75;;;9.25;;
7879;SDS011;3985;49.366;2.738;2023-07-20T08:57:51;12.00;;;12.00;;
7879;SDS011;3985;49.366;2.738;2023-07-20T09:00:20;10.25;;;9.00;;
7879;SDS011;3985;49.366;2.738;2023-07-20T09:02:50;10.50;;;10.25;;
7879;SDS011;3985;49.366;2.738;2023-07-20T09:05:18;9.75;;;9.75;;
7879;SDS011;3985;49.366;2.738;2023-07-20T09:07:46;12.75;;;10.00;;
7879;SDS011;3985;49.366;2.738;2023-07-20T09:10:13;8.25;;;8.25;;
7879;SDS011;3985;49.366;2.738;2023-07-20T09:12:41;8.20;;;8.20;;
7879;SDS011;3985;49.366;2.738;2023-07-20T09:15:09;8.00;;;8.00;;
7879;SDS011;3985;49.366;2.738;2023-07-20T09:17:37;7.80;;;7.60;;
7879;SDS011;3985;49.366;2.738;2023-07-20T09:20:07;10.20;;;8.60;;
7879;SDS011;3985;49.366;2.738;2023-07-20T09:22:36;8.60;;;8.60;;
7879;SDS011;3985;49.366;2.738;2023-07-20T09:25:05;8.60;;;7.40;;
7879;SDS011;3985;49.366;2.738;2023-07-20T09:27:37;5.60;;;5.60;;
7879;SDS011;3985;49.366;2.738;2023-07-20T09:30:05;8.80;;;8.20;;
7879;SDS011;3985;49.366;2.738;2023-07-20T09:32:38;7.60;;;7.60;;
7879;SDS011;3985;49.366;2.738;2023-07-20T09:35:10;10.20;;;10.20;;
7879;SDS011;3985;49.366;2.738;2023-07-20T09:37:41;7.20;;;7.20;;
7879;SDS011;3985;49.366;2.738;2023-07-20T09:40:14;7.60;;;7.60;;
7879;SDS011;3985;49.366;2.738;2023-07-20T09:42:43;7.60;;;7.60;;
7879;SDS011;3985;49.366;2.738;2023-07-20T09:45:10;8.60;;;8.60;;
7879;SDS011;3985;49.366;2.738;2023-07-20T09:47:38;9.40;;;9.20;;
7879;SDS011;3985;49.366;2.738;2023-07-20T09:50:08;9.80;;;9.80;;
7879;SDS011;3985;49.366;2.738;2023-07-20T09:52:40;14.80;;;10.80;;
7879;SDS011;3985;49.366;2.738;2023-07-20T09:55:09;8.60;;;8.60;;
7879;SDS011;3985;49.366;2.738;2023-07-20T09:57:37;9.80;;;9.40;;
7879;SDS011;3985;49.366;2.738;2023-07-20T10:00:05;10.20;;;9.00;;
7879;SDS011;3985;49.366;2.738;2023-07-20T10:02:40;2.00;;;2.00;;
7879;SDS011;3985;49.366;2.738;2023-07-20T10:05:12;7.80;;;6.60;;
7879;SDS011;3985;49.366;2.738;2023-07-20T10:07:43;11.40;;;9.60;;
7879;SDS011;3985;49.366;2.738;2023-07-20T10:10:15;8.20;;;8.20;;
7879;SDS011;3985;49.366;2.738;2023-07-20T10:12:46;9.40;;;9.40;;
7879;SDS011;3985;49.366;2.738;2023-07-20T10:15:16;7.20;;;6.80;;
7879;SDS011;3985;49.366;2.738;2023-07-20T10:17:49;10.20;;;7.20;;
7879;SDS011;3985;49.366;2.738;2023-07-20T10:20:27;9.00;;;7.80;;
7879;SDS011;3985;49.366;2.738;2023-07-20T10:22:54;6.60;;;5.00;;
7879;SDS011;3985;49.366;2.738;2023-07-20T10:25:22;10.60;;;7.80;;
7879;SDS011;3985;49.366;2.738;2023-07-20T10:27:50;8.80;;;8.80;;
7879;SDS011;3985;49.366;2.738;2023-07-20T10:30:18;6.00;;;6.00;;
7879;SDS011;3985;49.366;2.738;2023-07-20T10:32:46;7.80;;;5.20;;
7879;SDS011;3985;49.366;2.738;2023-07-20T10:35:14;14.20;;;14.20;;
7879;SDS011;3985;49.366;2.738;2023-07-20T10:37:59;5.40;;;5.40;;
7879;SDS011;3985;49.366;2.738;2023-07-20T10:40:27;6.00;;;4.60;;
7879;SDS011;3985;49.366;2.738;2023-07-20T10:42:58;3.40;;;2.60;;
7879;SDS011;3985;49.366;2.738;2023-07-20T10:45:36;3.40;;;3.40;;
7879;SDS011;3985;49.366;2.738;2023-07-20T10:48:14;0.80;;;0.80;;
7879;SDS011;3985;49.366;2.738;2023-07-20T10:50:42;0.20;;;0.20;;
7879;SDS011;3985;49.366;2.738;2023-07-20T10:53:11;0.20;;;0.20;;
7879;SDS011;3985;49.366;2.738;2023-07-20T10:55:43;1.20;;;1.20;;
7879;SDS011;3985;49.366;2.738;2023-07-20T10:58:11;1.00;;;0.60;;
7879;SDS011;3985;49.366;2.738;2023-07-20T11:00:58;0.00;;;0.00;;
7879;SDS011;3985;49.366;2.738;2023-07-20T11:03:26;1.00;;;1.00;;
7879;SDS011;3985;49.366;2.738;2023-07-20T11:05:56;0.00;;;0.00;;
7879;SDS011;3985;49.366;2.738;2023-07-20T11:08:40;0.60;;;0.60;;
7879;SDS011;3985;49.366;2.738;2023-07-20T11:11:20;1.00;;;1.00;;
7879;SDS011;3985;49.366;2.738;2023-07-20T11:13:54;2.00;;;2.00;;
7879;SDS011;3985;49.366;2.738;2023-07-20T11:16:39;0.20;;;0.20;;
7879;SDS011;3985;49.366;2.738;2023-07-20T11:19:13;1.80;;;1.80;;
7879;SDS011;3985;49.366;2.738;2023-07-20T11:21:42;0.80;;;0.80;;
7879;SDS011;3985;49.366;2.738;2023-07-20T11:24:12;1.40;;;1.40;;
7879;SDS011;3985;49.366;2.738;2023-07-20T11:26:43;0.00;;;0.00;;
7879;SDS011;3985;49.366;2.738;2023-07-20T11:29:11;0.20;;;0.20;;
7879;SDS011;3985;49.366;2.738;2023-07-20T11:31:38;0.40;;;0.40;;
7879;SDS011;3985;49.366;2.738;2023-07-20T11:34:10;0.00;;;0.00;;
7879;SDS011;3985;49.366;2.738;2023-07-20T11:36:39;0.00;;;0.00;;
7879;SDS011;3985;49.366;2.738;2023-07-20T11:39:08;2.00;;;1.00;;
7879;SDS011;3985;49.366;2.738;2023-07-20T11:41:37;1.00;;;1.00;;
7879;SDS011;3985;49.366;2.738;2023-07-20T11:44:05;0.00;;;0.00;;
7879;SDS011;3985;49.366;2.738;2023-07-20T11:46:32;0.00;;;0.00;;
7879;SDS011;3985;49.366;2.738;2023-07-20T11:49:00;1.00;;;1.00;;
7879;SDS011;3985;49.366;2.738;2023-07-20T11:51:29;1.00;;;1.00;;
7879;SDS011;3985;49.366;2.738;2023-07-20T11:53:56;0.60;;;0.60;;
7879;SDS011;3985;49.366;2.738;2023-07-20T11:56:24;2.00;;;1.00;;
7879;SDS011;3985;49.366;2.738;2023-07-20T11:58:55;1.20;;;1.20;;
7879;SDS011;3985;49.366;2.738;2023-07-20T12:01:25;1.00;;;1.00;;
7879;SDS011;3985;49.366;2.738;2023-07-20T12:03:54;1.00;;;1.00;;
7879;SDS011;3985;49.366;2.738;2023-07-20T12:06:23;0.00;;;0.00;;
7879;SDS011;3985;49.366;2.738;2023-07-20T12:08:54;1.00;;;1.00;;
7879;SDS011;3985;49.366;2.738;2023-07-20T12:11:32;1.00;;;1.00;;
7879;SDS011;3985;49.366;2.738;2023-07-20T12:14:01;2.00;;;2.00;;
7879;SDS011;3985;49.366;2.738;2023-07-20T12:16:29;0.80;;;0.80;;
7879;SDS011;3985;49.366;2.738;2023-07-20T12:19:00;0.80;;;0.80;;
7879;SDS011;3985;49.366;2.738;2023-07-20T12:21:28;1.00;;;1.00;;
7879;SDS011;3985;49.366;2.738;2023-07-20T12:23:55;0.40;;;0.40;;
7879;SDS011;3985;49.366;2.738;2023-07-20T12:26:24;3.00;;;3.00;;
7879;SDS011;3985;49.366;2.738;2023-07-20T12:28:53;2.40;;;1.00;;
7879;SDS011;3985;49.366;2.738;2023-07-20T12:31:22;3.00;;;3.00;;
7879;SDS011;3985;49.366;2.738;2023-07-20T12:33:49;1.20;;;1.20;;
7879;SDS011;3985;49.366;2.738;2023-07-20T12:36:17;1.20;;;1.20;;
7879;SDS011;3985;49.366;2.738;2023-07-20T12:38:45;1.80;;;1.80;;
7879;SDS011;3985;49.366;2.738;2023-07-20T12:41:12;1.60;;;1.60;;
7879;SDS011;3985;49.366;2.738;2023-07-20T12:43:40;1.00;;;1.00;;
7879;SDS011;3985;49.366;2.738;2023-07-20T12:46:08;1.00;;;1.00;;
7879;SDS011;3985;49.366;2.738;2023-07-20T12:48:38;3.00;;;1.40;;
7879;SDS011;3985;49.366;2.738;2023-07-20T12:51:07;2.00;;;2.00;;
7879;SDS011;3985;49.366;2.738;2023-07-20T12:53:34;1.00;;;1.00;;
7879;SDS011;3985;49.366;2.738;2023-07-20T12:56:02;1.40;;;1.40;;
7879;SDS011;3985;49.366;2.738;2023-07-20T12:58:29;0.00;;;0.00;;
7879;SDS011;3985;49.366;2.738;2023-07-20T13:00:56;1.80;;;1.00;;
7879;SDS011;3985;49.366;2.738;2023-07-20T13:03:24;1.00;;;1.00;;
7879;SDS011;3985;49.366;2.738;2023-07-20T13:05:52;0.00;;;0.00;;
7879;SDS011;3985;49.366;2.738;2023-07-20T13:08:19;1.80;;;1.00;;
7879;SDS011;3985;49.366;2.738;2023-07-20T13:10:50;1.00;;;1.00;;
7879;SDS011;3985;49.366;2.738;2023-07-20T13:13:17;1.00;;;1.00;;
7879;SDS011;3985;49.366;2.738;2023-07-20T13:15:45;1.00;;;1.00;;
7879;SDS011;3985;49.366;2.738;2023-07-20T13:18:13;1.20;;;1.20;;
7879;SDS011;3985;49.366;2.738;2023-07-20T13:20:43;2.00;;;0.00;;
7879;SDS011;3985;49.366;2.738;2023-07-20T13:23:12;1.00;;;1.00;;
7879;SDS011;3985;49.366;2.738;2023-07-20T13:25:43;2.00;;;1.40;;
7879;SDS011;3985;49.366;2.738;2023-07-20T13:28:10;1.00;;;1.00;;
7879;SDS011;3985;49.366;2.738;2023-07-20T13:30:38;1.80;;;1.80;;
7879;SDS011;3985;49.366;2.738;2023-07-20T13:33:05;2.00;;;1.20;;
7879;SDS011;3985;49.366;2.738;2023-07-20T13:35:32;0.80;;;0.80;;
7879;SDS011;3985;49.366;2.738;2023-07-20T13:38:01;2.20;;;2.20;;
7879;SDS011;3985;49.366;2.738;2023-07-20T13:40:30;0.60;;;0.60;;
7879;SDS011;3985;49.366;2.738;2023-07-20T13:42:58;0.00;;;0.00;;
7879;SDS011;3985;49.366;2.738;2023-07-20T13:45:25;1.00;;;1.00;;
7879;SDS011;3985;49.366;2.738;2023-07-20T13:47:52;1.80;;;1.00;;
7879;SDS011;3985;49.366;2.738;2023-07-20T13:50:19;3.00;;;1.40;;
7879;SDS011;3985;49.366;2.738;2023-07-20T13:52:46;0.00;;;0.00;;
7879;SDS011;3985;49.366;2.738;2023-07-20T13:55:16;1.40;;;1.40;;
7879;SDS011;3985;49.366;2.738;2023-07-20T13:57:46;0.60;;;0.60;;
7879;SDS011;3985;49.366;2.738;2023-07-20T14:00:14;1.00;;;1.00;;
7879;SDS011;3985;49.366;2.738;2023-07-20T14:02:41;1.80;;;1.80;;
7879;SDS011;3985;49.366;2.738;2023-07-20T14:05:09;0.60;;;0.60;;
7879;SDS011;3985;49.366;2.738;2023-07-20T14:07:36;0.00;;;0.00;;
7879;SDS011;3985;49.366;2.738;2023-07-20T14:10:05;1.00;;;1.00;;
7879;SDS011;3985;49.366;2.738;2023-07-20T14:12:32;1.60;;;0.00;;
7879;SDS011;3985;49.366;2.738;2023-07-20T14:15:01;0.00;;;0.00;;
7879;SDS011;3985;49.366;2.738;2023-07-20T14:17:28;0.80;;;0.80;;
7879;SDS011;3985;49.366;2.738;2023-07-20T14:19:56;0.00;;;0.00;;
7879;SDS011;3985;49.366;2.738;2023-07-20T14:22:23;0.00;;;0.00;;
7879;SDS011;3985;49.366;2.738;2023-07-20T14:24:50;0.20;;;0.20;;
7879;SDS011;3985;49.366;2.738;2023-07-20T14:27:17;0.00;;;0.00;;
7879;SDS011;3985;49.366;2.738;2023-07-20T14:29:44;0.00;;;0.00;;
7879;SDS011;3985;49.366;2.738;2023-07-20T14:32:13;0.80;;;0.80;;
7879;SDS011;3985;49.366;2.738;2023-07-20T14:34:40;1.00;;;1.00;;
7879;SDS011;3985;49.366;2.738;2023-07-20T14:37:08;1.00;;;1.00;;
7879;SDS011;3985;49.366;2.738;2023-07-20T14:39:35;2.00;;;0.20;;
7879;SDS011;3985;49.366;2.738;2023-07-20T14:42:02;1.00;;;1.00;;
7879;SDS011;3985;49.366;2.738;2023-07-20T14:44:30;0.00;;;0.00;;
7879;SDS011;3985;49.366;2.738;2023-07-20T14:46:59;0.20;;;0.20;;
7879;SDS011;3985;49.366;2.738;2023-07-20T14:49:27;0.00;;;0.00;;
7879;SDS011;3985;49.366;2.738;2023-07-20T14:51:54;0.40;;;0.40;;
7879;SDS011;3985;49.366;2.738;2023-07-20T14:54:21;0.00;;;0.00;;
7879;SDS011;3985;49.366;2.738;2023-07-20T14:56:49;0.00;;;0.00;;
7879;SDS011;3985;49.366;2.738;2023-07-20T14:59:18;0.00;;;0.00;;
7879;SDS011;3985;49.366;2.738;2023-07-20T15:01:45;0.20;;;0.20;;
7879;SDS011;3985;49.366;2.738;2023-07-20T15:04:13;0.00;;;0.00;;
7879;SDS011;3985;49.366;2.738;2023-07-20T15:06:42;0.00;;;0.00;;
7879;SDS011;3985;49.366;2.738;2023-07-20T15:09:09;0.00;;;0.00;;
7879;SDS011;3985;49.366;2.738;2023-07-20T15:11:37;1.60;;;0.00;;
7879;SDS011;3985;49.366;2.738;2023-07-20T15:14:04;1.00;;;1.00;;
7879;SDS011;3985;49.366;2.738;2023-07-20T15:16:31;0.00;;;0.00;;
7879;SDS011;3985;49.366;2.738;2023-07-20T15:19:00;0.00;;;0.00;;
7879;SDS011;3985;49.366;2.738;2023-07-20T15:21:27;2.00;;;0.00;;